Time;durP1;ratioP1;P1;durP2;ratioP2;P2;SDS_P1;SDS_P2;PMS_P1;PMS_P2;Temp;Humidity;BMP_temperature;BMP_pressure;BME280_temperature;BME280_humidity;BME280_pressure;Samples;Min_cycle;Max_cycle;Signal;HPM_P1;HPM_P2
2023/08/07 00:00:24;;;;;;;16.88;4.35;;;15.40;99.90;;;;;;5052507;28;20178;-83
2023/08/07 00:02:50;;;;;;;12.35;2.03;;;15.40;99.90;;;;;;5082417;28;20048;-82
2023/08/07 00:05:16;;;;;;;10.10;2.70;;;15.50;99.90;;;;;;5070937;28;20048;-83
2023/08/07 00:07:43;;;;;;;8.43;2.38;;;15.50;99.90;;;;;;5067694;28;20048;-83
2023/08/07 00:10:09;;;;;;;8.40;2.88;;;15.50;99.90;;;;;;5069450;28;20373;-82
2023/08/07 00:12:34;;;;;;;20.70;3.10;;;15.50;99.90;;;;;;5068526;28;20591;-83
2023/08/07 00:15:01;;;;;;;6.28;2.50;;;15.50;99.90;;;;;;5068740;28;20531;-83
2023/08/07 00:17:27;;;;;;;9.70;2.67;;;15.50;99.90;;;;;;5068684;28;20051;-83
2023/08/07 00:19:53;;;;;;;5.15;2.58;;;15.50;99.90;;;;;;5050890;28;20127;-83
2023/08/07 00:22:18;;;;;;;9.20;2.90;;;15.50;99.90;;;;;;5052324;28;20055;-83
2023/08/07 00:24:44;;;;;;;8.20;2.75;;;15.50;99.90;;;;;;5051813;28;20041;-83
2023/08/07 00:27:11;;;;;;;8.30;2.60;;;15.50;99.90;;;;;;5051469;28;20052;-83
2023/08/07 00:29:37;;;;;;;15.57;3.17;;;15.50;99.90;;;;;;5071044;28;20055;-83
2023/08/07 00:32:03;;;;;;;10.57;2.63;;;15.40;99.90;;;;;;5051356;28;20048;-83
2023/08/07 00:34:29;;;;;;;12.90;3.10;;;15.40;99.90;;;;;;5070075;28;20071;-83
2023/08/07 00:36:55;;;;;;;9.65;2.47;;;15.40;99.90;;;;;;5068287;28;20054;-83
2023/08/07 00:39:21;;;;;;;10.13;2.33;;;15.30;99.90;;;;;;5053063;28;20051;-83
2023/08/07 00:41:47;;;;;;;7.90;1.92;;;15.30;99.90;;;;;;5051424;28;20128;-82
2023/08/07 00:44:13;;;;;;;10.48;2.63;;;15.30;99.90;;;;;;5069234;28;20131;-83
2023/08/07 00:46:41;;;;;;;4.90;2.10;;;15.20;99.90;;;;;;5069100;28;20105;-83
2023/08/07 00:49:09;;;;;;;10.13;2.00;;;15.20;99.90;;;;;;5051166;28;20447;-82
2023/08/07 00:51:36;;;;;;;7.22;2.08;;;15.20;99.90;;;;;;5068708;28;20527;-83
2023/08/07 00:54:04;;;;;;;10.25;2.13;;;15.20;99.90;;;;;;5068397;28;20048;-83
2023/08/07 00:56:30;;;;;;;8.60;2.20;;;15.20;99.90;;;;;;5067907;28;20495;-83
2023/08/07 00:58:58;;;;;;;8.30;2.22;;;15.20;99.90;;;;;;5067637;28;20087;-83
2023/08/07 01:01:25;;;;;;;6.25;1.70;;;15.20;99.90;;;;;;5067986;28;20573;-83
2023/08/07 01:03:51;;;;;;;11.05;2.15;;;15.20;99.90;;;;;;5067825;28;20123;-83
2023/08/07 01:06:17;;;;;;;7.28;1.90;;;15.20;99.90;;;;;;5068547;28;20579;-83
2023/08/07 01:08:43;;;;;;;8.63;1.83;;;15.20;99.90;;;;;;5069008;28;20448;-83
2023/08/07 01:11:49;;;;;;;7.68;1.92;;;15.20;99.90;;;;;;5067114;28;20036;-83
2023/08/07 01:14:56;;;;;;;6.18;1.67;;;15.20;99.90;;;;;;5051697;28;20486;-83
2023/08/07 01:17:23;;;;;;;4.53;1.88;;;15.10;99.90;;;;;;5048006;28;20095;-84
2023/08/07 01:19:53;;;;;;;6.18;2.03;;;15.10;99.90;;;;;;5067826;28;20127;-83
2023/08/07 01:22:19;;;;;;;8.32;2.08;;;15.00;99.90;;;;;;5067997;28;20049;-83
2023/08/07 01:24:47;;;;;;;7.93;2.20;;;15.00;99.90;;;;;;5067213;28;20037;-83
2023/08/07 01:27:18;;;;;;;6.65;2.17;;;15.00;99.90;;;;;;5065693;28;20258;-83
2023/08/07 01:30:05;;;;;;;8.32;2.28;;;15.00;99.90;;;;;;5069265;28;20506;-83
2023/08/07 01:32:38;;;;;;;7.40;2.53;;;14.90;99.90;;;;;;5067517;28;20040;-83
2023/08/07 01:35:06;;;;;;;8.98;2.35;;;14.80;99.90;;;;;;5050953;28;20488;-83
2023/08/07 01:37:38;;;;;;;7.53;2.35;;;14.80;99.90;;;;;;5067066;28;20071;-83
2023/08/07 01:40:06;;;;;;;7.63;2.30;;;14.80;99.90;;;;;;5067056;28;20162;-83
2023/08/07 01:42:32;;;;;;;8.52;2.55;;;14.70;99.90;;;;;;5067781;28;20463;-83
2023/08/07 01:44:58;;;;;;;7.65;2.08;;;14.70;99.90;;;;;;5065849;28;20119;-83
2023/08/07 01:47:24;;;;;;;6.38;2.08;;;14.70;99.90;;;;;;5067305;28;20101;-84
2023/08/07 01:49:49;;;;;;;6.78;2.30;;;14.70;99.90;;;;;;5066684;28;20119;-83
2023/08/07 01:52:15;;;;;;;6.72;2.03;;;14.60;99.90;;;;;;5066774;28;20125;-83
2023/08/07 01:54:41;;;;;;;6.95;2.10;;;14.60;99.90;;;;;;5068762;28;20045;-83
2023/08/07 01:57:06;;;;;;;10.27;2.00;;;14.60;99.90;;;;;;5066468;28;20458;-83
2023/08/07 01:59:32;;;;;;;4.07;2.03;;;14.60;99.90;;;;;;5066259;28;20067;-83
2023/08/07 02:01:58;;;;;;;9.70;2.85;;;14.60;99.90;;;;;;5065407;28;20068;-83
2023/08/07 02:04:23;;;;;;;8.48;2.50;;;14.60;99.90;;;;;;5067208;28;20052;-83
2023/08/07 02:06:49;;;;;;;7.80;2.83;;;14.60;99.90;;;;;;5065865;28;20048;-83
2023/08/07 02:09:15;;;;;;;11.30;3.03;;;14.50;99.90;;;;;;5066784;28;20060;-83
2023/08/07 02:11:40;;;;;;;8.13;2.80;;;14.50;99.90;;;;;;5067258;28;20115;-83
2023/08/07 02:14:06;;;;;;;10.35;3.47;;;14.50;99.90;;;;;;5067465;28;20052;-83
2023/08/07 02:16:32;;;;;;;10.82;3.30;;;14.50;99.90;;;;;;5066367;28;20056;-83
2023/08/07 02:18:57;;;;;;;10.05;3.58;;;14.40;99.90;;;;;;5067398;28;20044;-83
2023/08/07 02:21:23;;;;;;;12.77;3.22;;;14.50;99.90;;;;;;5067391;28;20070;-83
2023/08/07 02:23:49;;;;;;;9.90;3.10;;;14.40;99.90;;;;;;5066469;28;20076;-83
2023/08/07 02:26:14;;;;;;;9.77;3.10;;;14.40;99.90;;;;;;5048757;28;20055;-83
2023/08/07 02:28:40;;;;;;;8.73;3.13;;;14.40;99.90;;;;;;5066970;28;20041;-83
2023/08/07 02:31:06;;;;;;;11.30;3.35;;;14.40;99.90;;;;;;5067621;28;20487;-83
2023/08/07 02:33:32;;;;;;;8.88;2.95;;;14.30;99.90;;;;;;5065472;28;20084;-83
2023/08/07 02:35:58;;;;;;;8.32;3.10;;;14.30;99.90;;;;;;5065768;28;20048;-83
2023/08/07 02:38:24;;;;;;;13.73;3.20;;;14.30;99.90;;;;;;5050332;28;20123;-83
2023/08/07 02:40:50;;;;;;;14.68;3.40;;;14.30;99.90;;;;;;5066616;28;20036;-83
2023/08/07 02:43:15;;;;;;;14.90;3.80;;;14.40;99.90;;;;;;5073014;28;20094;-83
2023/08/07 02:45:41;;;;;;;15.27;3.28;;;14.40;99.90;;;;;;5061292;28;20148;-83
2023/08/07 02:48:07;;;;;;;17.58;3.55;;;14.40;99.90;;;;;;5058065;28;20563;-82
2023/08/07 02:50:32;;;;;;;17.33;3.70;;;14.50;99.90;;;;;;5079258;28;20127;-83
2023/08/07 02:52:59;;;;;;;16.52;3.65;;;14.50;99.90;;;;;;5049007;28;20515;-83
2023/08/07 02:55:25;;;;;;;15.32;3.72;;;14.50;99.90;;;;;;5084683;28;20402;-84
2023/08/07 02:57:51;;;;;;;13.65;3.45;;;14.50;99.90;;;;;;5067711;28;20488;-83
2023/08/07 03:00:16;;;;;;;14.30;3.53;;;14.50;99.90;;;;;;5049686;28;20068;-83
2023/08/07 03:02:42;;;;;;;17.13;3.45;;;14.60;99.90;;;;;;5063788;28;20048;-83
2023/08/07 03:05:08;;;;;;;12.75;3.70;;;14.60;99.90;;;;;;5082645;28;20449;-83
2023/08/07 03:07:34;;;;;;;18.52;3.20;;;14.60;99.90;;;;;;5066111;28;20139;-83
2023/08/07 03:09:59;;;;;;;18.80;3.67;;;14.60;99.90;;;;;;5066924;28;20123;-83
2023/08/07 03:12:25;;;;;;;11.27;3.25;;;14.60;99.90;;;;;;5074508;28;20045;-83
2023/08/07 03:14:51;;;;;;;14.25;3.42;;;14.60;99.90;;;;;;5066466;28;20036;-83
2023/08/07 03:17:17;;;;;;;15.43;3.10;;;14.60;99.90;;;;;;5065669;28;20094;-84
2023/08/07 03:19:43;;;;;;;9.85;2.45;;;14.50;99.90;;;;;;5079929;28;20074;-83
2023/08/07 03:22:09;;;;;;;20.35;4.03;;;14.50;99.90;;;;;;5048836;28;20041;-83
2023/08/07 03:24:35;;;;;;;13.68;2.80;;;14.50;99.90;;;;;;5065145;28;20506;-83
2023/08/07 03:27:01;;;;;;;13.80;3.22;;;14.50;99.90;;;;;;5062562;28;20082;-83
2023/08/07 03:29:26;;;;;;;11.90;3.35;;;14.50;99.90;;;;;;5067609;28;20260;-83
2023/08/07 03:31:52;;;;;;;12.55;3.13;;;14.50;99.90;;;;;;5069973;28;20048;-83
2023/08/07 03:34:18;;;;;;;11.07;3.03;;;14.60;99.90;;;;;;5066987;28;20032;-83
2023/08/07 03:36:44;;;;;;;17.73;2.92;;;14.60;99.90;;;;;;5065984;28;20084;-83
2023/08/07 03:39:11;;;;;;;16.30;3.08;;;14.60;99.90;;;;;;5065720;28;20119;-83
2023/08/07 03:41:37;;;;;;;12.60;2.33;;;14.60;99.90;;;;;;5065565;28;20404;-84
2023/08/07 03:44:03;;;;;;;10.65;2.35;;;14.60;99.90;;;;;;5064391;28;20443;-83
2023/08/07 03:46:29;;;;;;;10.75;2.63;;;14.60;99.90;;;;;;5047682;28;20055;-84
2023/08/07 03:48:55;;;;;;;8.93;2.40;;;14.60;99.90;;;;;;5064885;28;20047;-83
2023/08/07 03:51:20;;;;;;;9.57;2.17;;;14.60;99.90;;;;;;5064732;28;20036;-83
2023/08/07 03:53:46;;;;;;;13.90;2.30;;;14.70;99.90;;;;;;5064808;28;20041;-84
2023/08/07 03:56:12;;;;;;;23.15;2.50;;;14.70;99.90;;;;;;5065659;28;20072;-84
2023/08/07 03:58:38;;;;;;;11.50;1.90;;;14.70;99.90;;;;;;5047713;28;20135;-85
2023/08/07 04:01:04;;;;;;;15.43;2.58;;;14.70;99.90;;;;;;5061029;28;20055;-85
2023/08/07 04:03:29;;;;;;;15.25;2.38;;;14.80;99.90;;;;;;5068244;28;20559;-83
2023/08/07 04:05:55;;;;;;;12.85;2.65;;;14.80;99.90;;;;;;5071295;28;20043;-84
2023/08/07 04:08:22;;;;;;;9.13;2.28;;;14.80;99.90;;;;;;5066962;28;20515;-85
2023/08/07 04:11:02;;;;;;;13.50;2.75;;;14.70;99.90;;;;;;5062867;28;20109;-84
2023/08/07 04:13:28;;;;;;;12.85;2.30;;;14.70;99.90;;;;;;5061206;28;20094;-84
2023/08/07 04:15:54;;;;;;;11.55;2.95;;;14.70;99.90;;;;;;5064482;28;20058;-84
2023/08/07 04:18:19;;;;;;;11.05;2.45;;;14.70;99.90;;;;;;5066095;28;20127;-84
2023/08/07 04:20:50;;;;;;;15.40;2.63;;;14.60;99.90;;;;;;5054700;28;20036;-83
2023/08/07 04:23:16;;;;;;;7.85;2.53;;;14.60;99.90;;;;;;5062880;28;20047;-84
2023/08/07 04:25:41;;;;;;;14.07;2.50;;;14.60;99.90;;;;;;5071905;28;20033;-84
2023/08/07 04:28:07;;;;;;;14.77;2.72;;;14.50;99.90;;;;;;5076259;28;20192;-84
2023/08/07 04:30:33;;;;;;;17.08;2.72;;;14.50;99.90;;;;;;5069638;28;20040;-83
2023/08/07 04:32:59;;;;;;;17.23;3.53;;;14.50;99.90;;;;;;5071783;28;20040;-83
2023/08/07 04:35:25;;;;;;;17.80;3.25;;;14.50;99.90;;;;;;5064372;28;20048;-84
2023/08/07 04:37:50;;;;;;;24.98;4.07;;;14.50;99.90;;;;;;5057398;28;20484;-84
2023/08/07 04:40:16;;;;;;;19.88;3.72;;;14.60;99.90;;;;;;5068145;28;20044;-83
2023/08/07 04:42:42;;;;;;;16.92;2.97;;;14.60;99.90;;;;;;5077249;28;20047;-84
2023/08/07 04:45:09;;;;;;;18.10;3.90;;;14.60;99.90;;;;;;5071428;28;20036;-84
2023/08/07 04:47:35;;;;;;;23.73;4.03;;;14.60;99.90;;;;;;5049409;28;20048;-84
2023/08/07 04:50:01;;;;;;;25.65;4.35;;;14.60;99.90;;;;;;5044488;28;20052;-84
2023/08/07 04:52:27;;;;;;;15.50;3.38;;;14.70;99.90;;;;;;5067427;28;20052;-83
2023/08/07 04:54:52;;;;;;;17.38;3.00;;;14.70;99.90;;;;;;5066998;28;20040;-84
2023/08/07 04:57:18;;;;;;;14.32;3.33;;;14.70;99.90;;;;;;5072271;28;20028;-83
2023/08/07 04:59:44;;;;;;;16.27;3.40;;;14.70;99.90;;;;;;5079822;28;20135;-83
2023/08/07 05:02:11;;;;;;;17.65;3.22;;;14.70;99.90;;;;;;5066585;28;20044;-83
2023/08/07 05:04:37;;;;;;;13.30;2.88;;;14.70;99.90;;;;;;5070287;28;20547;-83
2023/08/07 05:07:03;;;;;;;15.57;3.33;;;14.70;99.90;;;;;;5068001;28;20182;-84
2023/08/07 05:09:29;;;;;;;13.23;2.92;;;14.70;99.90;;;;;;5068081;28;20433;-84
2023/08/07 05:11:54;;;;;;;17.63;3.50;;;14.80;99.90;;;;;;5068120;28;20060;-85
2023/08/07 05:14:20;;;;;;;25.02;3.35;;;14.90;99.90;;;;;;5051525;28;20892;-85
2023/08/07 05:16:46;;;;;;;15.82;3.15;;;14.90;99.90;;;;;;5068543;28;20056;-84
2023/08/07 05:19:12;;;;;;;20.35;3.53;;;15.00;99.90;;;;;;5052082;28;20047;-84
2023/08/07 05:21:38;;;;;;;25.02;3.50;;;15.10;99.90;;;;;;5069560;28;20404;-84
2023/08/07 05:24:06;;;;;;;17.15;3.35;;;15.10;99.90;;;;;;5067686;28;20044;-84
2023/08/07 05:26:32;;;;;;;18.98;4.05;;;15.20;99.90;;;;;;5068300;28;20040;-84
2023/08/07 05:28:58;;;;;;;19.20;4.35;;;15.20;99.90;;;;;;5068310;28;20166;-84
2023/08/07 05:31:24;;;;;;;23.38;4.53;;;15.20;99.90;;;;;;5059577;28;20050;-84
2023/08/07 05:33:50;;;;;;;20.58;4.13;;;15.30;99.90;;;;;;5071892;28;20124;-84
2023/08/07 05:36:16;;;;;;;19.38;3.83;;;15.30;99.90;;;;;;5060089;28;20514;-84
2023/08/07 05:38:42;;;;;;;21.60;3.28;;;15.20;99.90;;;;;;5068428;28;20037;-84
2023/08/07 05:41:10;;;;;;;22.20;3.67;;;15.20;99.90;;;;;;5069254;28;20433;-84
2023/08/07 05:43:36;;;;;;;23.67;3.95;;;15.30;99.90;;;;;;5049084;28;20046;-84
2023/08/07 05:46:02;;;;;;;20.38;3.30;;;15.40;99.90;;;;;;5058189;28;20044;-84
2023/08/07 05:48:28;;;;;;;23.95;3.97;;;15.40;99.90;;;;;;5065463;28;20492;-84
2023/08/07 05:50:53;;;;;;;19.25;3.50;;;15.60;99.90;;;;;;5062834;28;20070;-83
2023/08/07 05:53:20;;;;;;;18.38;3.85;;;15.70;99.90;;;;;;5064258;28;20041;-83
2023/08/07 05:55:46;;;;;;;18.77;3.20;;;15.80;99.90;;;;;;5092366;28;20448;-84
2023/08/07 05:58:12;;;;;;;15.50;3.15;;;16.00;99.90;;;;;;5066320;28;20483;-82
2023/08/07 06:00:38;;;;;;;15.93;3.08;;;16.00;99.90;;;;;;5085437;28;20066;-82
2023/08/07 06:03:04;;;;;;;18.38;3.30;;;15.80;99.90;;;;;;5065375;28;20056;-81
2023/08/07 06:05:30;;;;;;;18.67;2.97;;;15.70;99.90;;;;;;5050768;28;20132;-81
2023/08/07 06:07:56;;;;;;;16.88;3.38;;;15.70;99.90;;;;;;5067022;28;20547;-81
2023/08/07 06:10:21;;;;;;;22.48;4.03;;;15.60;99.90;;;;;;5043646;28;20049;-82
2023/08/07 06:12:47;;;;;;;16.42;4.03;;;15.60;99.90;;;;;;5042990;28;20089;-81
2023/08/07 06:15:13;;;;;;;15.90;2.97;;;15.60;99.90;;;;;;5065112;28;20059;-81
2023/08/07 06:17:39;;;;;;;20.15;3.50;;;15.60;99.90;;;;;;5059949;28;20044;-81
2023/08/07 06:20:09;;;;;;;13.15;3.10;;;15.70;99.90;;;;;;5066376;28;20065;-81
2023/08/07 06:22:35;;;;;;;14.52;3.13;;;15.70;99.90;;;;;;5061018;28;20127;-82
2023/08/07 06:25:01;;;;;;;10.30;2.35;;;15.70;99.90;;;;;;5060017;28;20112;-82
2023/08/07 06:27:27;;;;;;;16.33;2.50;;;15.80;99.90;;;;;;5067538;28;20480;-82
2023/08/07 06:29:52;;;;;;;12.65;2.33;;;15.90;99.90;;;;;;5065898;28;20042;-82
2023/08/07 06:32:18;;;;;;;9.80;2.55;;;15.80;99.90;;;;;;5065832;28;20086;-82
2023/08/07 06:34:46;;;;;;;9.32;2.10;;;15.80;99.90;;;;;;5061888;28;20049;-82
2023/08/07 06:37:12;;;;;;;14.70;3.00;;;15.70;99.90;;;;;;5067863;28;20052;-82
2023/08/07 06:39:38;;;;;;;17.42;4.03;;;15.70;99.90;;;;;;5042252;28;20169;-82
2023/08/07 06:42:04;;;;;;;16.58;2.58;;;15.90;99.90;;;;;;5062886;28;20127;-82
2023/08/07 06:44:30;;;;;;;16.27;2.72;;;16.20;99.90;;;;;;5066087;28;20048;-83
2023/08/07 06:46:55;;;;;;;14.38;3.03;;;16.20;99.90;;;;;;5072071;28;20043;-82
2023/08/07 06:49:21;;;;;;;10.75;2.53;;;16.10;99.90;;;;;;5073578;28;20040;-85
2023/08/07 06:51:47;;;;;;;14.02;2.67;;;16.00;99.90;;;;;;5047929;28;20040;-83
2023/08/07 06:54:16;;;;;;;15.07;2.70;;;15.90;99.90;;;;;;5072454;28;20036;-82
2023/08/07 06:56:43;;;;;;;15.82;2.72;;;15.70;99.90;;;;;;5060880;28;20047;-81
2023/08/07 06:59:09;;;;;;;16.65;3.10;;;15.60;99.90;;;;;;5055346;28;20480;-81
2023/08/07 07:01:36;;;;;;;19.38;3.20;;;15.50;99.90;;;;;;5074078;28;20043;-81
2023/08/07 07:04:02;;;;;;;14.25;2.70;;;15.50;99.90;;;;;;5060263;28;20048;-82
2023/08/07 07:06:28;;;;;;;11.95;2.60;;;15.60;99.90;;;;;;5061447;28;20053;-82
2023/08/07 07:08:56;;;;;;;17.55;3.05;;;15.60;99.90;;;;;;5066212;28;20051;-83
2023/08/07 07:11:24;;;;;;;13.05;3.00;;;15.70;99.90;;;;;;5067407;28;20435;-82
2023/08/07 07:13:50;;;;;;;16.63;2.38;;;15.70;99.90;;;;;;5076695;28;20380;-82
2023/08/07 07:16:21;;;;;;;18.05;3.40;;;15.70;99.90;;;;;;5062733;28;20044;-81
2023/08/07 07:18:49;;;;;;;16.73;2.88;;;15.60;99.90;;;;;;5074465;28;20885;-81
2023/08/07 07:21:14;;;;;;;16.90;2.90;;;15.60;99.90;;;;;;5055309;28;20044;-82
2023/08/07 07:23:40;;;;;;;17.88;3.35;;;15.60;99.90;;;;;;5080689;28;20033;-82
2023/08/07 07:26:06;;;;;;;19.80;3.55;;;15.60;99.90;;;;;;5069413;28;20243;-81
2023/08/07 07:28:31;;;;;;;18.15;3.15;;;15.70;99.90;;;;;;5062725;28;20086;-82
2023/08/07 07:30:57;;;;;;;17.10;3.35;;;15.70;99.90;;;;;;5063768;28;20504;-83
2023/08/07 07:33:24;;;;;;;21.88;2.70;;;15.80;99.90;;;;;;5078341;28;20448;-82
2023/08/07 07:35:49;;;;;;;20.67;3.35;;;16.00;99.90;;;;;;5082060;28;20086;-82
2023/08/07 07:38:16;;;;;;;18.45;3.17;;;16.10;99.90;;;;;;5078015;28;20032;-83
2023/08/07 07:40:41;;;;;;;10.98;2.72;;;16.20;99.90;;;;;;5052861;28;20036;-82
2023/08/07 07:43:07;;;;;;;13.30;2.55;;;16.40;99.90;;;;;;5058192;28;20510;-83
2023/08/07 07:45:36;;;;;;;11.70;2.35;;;16.50;99.90;;;;;;5039904;28;20044;-83
2023/08/07 07:48:03;;;;;;;19.65;2.65;;;16.60;99.90;;;;;;5082762;28;20044;-83
2023/08/07 07:50:29;;;;;;;13.32;2.60;;;16.60;99.90;;;;;;5059791;28;20059;-82
2023/08/07 07:52:54;;;;;;;13.70;3.13;;;16.50;99.90;;;;;;5063008;28;20048;-82
2023/08/07 07:55:20;;;;;;;12.45;2.80;;;16.60;99.90;;;;;;5086602;28;20051;-82
2023/08/07 07:57:46;;;;;;;10.55;2.20;;;16.80;99.90;;;;;;5062318;28;20451;-83
2023/08/07 08:00:13;;;;;;;12.90;2.63;;;16.80;99.90;;;;;;5072751;28;20059;-83
2023/08/07 08:02:40;;;;;;;11.90;2.35;;;16.80;99.90;;;;;;5046118;28;20507;-81
2023/08/07 08:05:07;;;;;;;16.15;3.05;;;16.70;99.90;;;;;;5061067;28;20044;-82
2023/08/07 08:07:34;;;;;;;11.95;2.30;;;16.60;99.90;;;;;;5079630;28;20052;-82
2023/08/07 08:10:00;;;;;;;10.43;2.55;;;16.50;99.90;;;;;;5063372;28;20040;-83
2023/08/07 08:12:26;;;;;;;12.60;2.58;;;16.40;99.90;;;;;;5062567;28;20484;-82
2023/08/07 08:14:52;;;;;;;16.23;2.88;;;16.30;99.90;;;;;;5073343;28;20052;-83
2023/08/07 08:17:18;;;;;;;11.82;2.90;;;16.20;99.90;;;;;;5061390;28;20514;-83
2023/08/07 08:19:43;;;;;;;11.80;2.40;;;16.10;99.90;;;;;;5047598;28;20045;-83
2023/08/07 08:22:09;;;;;;;11.57;2.78;;;16.10;99.90;;;;;;5065578;28;20376;-82
2023/08/07 08:24:35;;;;;;;10.55;2.60;;;16.10;99.90;;;;;;5065366;28;20032;-82
2023/08/07 08:27:01;;;;;;;13.07;2.78;;;16.10;99.90;;;;;;5060602;28;20105;-82
2023/08/07 08:29:28;;;;;;;10.55;3.10;;;16.10;99.90;;;;;;5050569;28;20044;-82
2023/08/07 08:31:55;;;;;;;17.80;2.72;;;16.30;99.90;;;;;;5048425;28;20040;-83
2023/08/07 08:34:21;;;;;;;13.80;2.55;;;16.40;99.90;;;;;;5062510;28;20055;-83
2023/08/07 08:36:47;;;;;;;16.40;2.72;;;16.70;99.90;;;;;;5049422;28;20040;-84
2023/08/07 08:39:13;;;;;;;16.90;3.22;;;16.80;99.90;;;;;;5066859;28;20040;-83
2023/08/07 08:41:42;;;;;;;19.73;3.92;;;16.90;99.90;;;;;;5050675;28;20047;-83
2023/08/07 08:44:11;;;;;;;16.95;3.17;;;16.90;99.90;;;;;;5066891;28;20476;-83
2023/08/07 08:46:38;;;;;;;9.10;2.67;;;16.90;99.90;;;;;;5050122;28;20035;-83
2023/08/07 08:49:05;;;;;;;13.73;3.20;;;16.90;99.90;;;;;;5063185;28;20056;-83
2023/08/07 08:51:32;;;;;;;18.70;2.67;;;17.10;99.90;;;;;;5052330;28;20044;-83
2023/08/07 08:53:59;;;;;;;12.07;2.53;;;17.20;99.90;;;;;;5067643;28;20382;-83
2023/08/07 08:56:25;;;;;;;15.80;2.95;;;17.30;99.90;;;;;;5070485;28;20094;-86
2023/08/07 08:58:51;;;;;;;9.05;2.10;;;17.30;99.90;;;;;;5065191;28;20090;-86
2023/08/07 09:01:21;;;;;;;13.82;2.83;;;17.30;99.90;;;;;;5065823;28;20562;-90
2023/08/07 09:03:47;;;;;;;16.23;2.40;;;17.40;99.90;;;;;;5064580;28;20040;-89
2023/08/07 09:06:13;;;;;;;8.65;1.70;;;17.40;99.90;;;;;;5062901;28;20419;-83
2023/08/07 09:08:43;;;;;;;13.48;2.95;;;17.50;99.90;;;;;;5080593;28;20075;-91
2023/08/07 09:11:10;;;;;;;20.27;2.65;;;17.70;99.90;;;;;;5058683;28;20068;-90
2023/08/07 09:13:40;;;;;;;13.55;2.30;;;17.70;99.90;;;;;;5063128;28;20084;-87
2023/08/07 09:16:09;;;;;;;10.68;2.17;;;17.70;99.90;;;;;;5052698;28;20555;-86
2023/08/07 09:18:35;;;;;;;13.57;2.45;;;17.80;99.90;;;;;;5058511;28;20044;-89
2023/08/07 09:21:01;;;;;;;13.45;2.45;;;17.90;99.90;;;;;;5053123;28;20056;-90
2023/08/07 09:23:27;;;;;;;12.88;2.83;;;17.90;99.90;;;;;;5052329;28;20048;-88
2023/08/07 09:26:01;;;;;;;10.80;2.35;;;18.00;99.90;;;;;;5052824;28;20043;-91
2023/08/07 09:28:29;;;;;;;15.43;1.98;;;17.80;99.90;;;;;;5072935;28;20044;-88
2023/08/07 09:30:55;;;;;;;12.13;2.15;;;17.80;99.90;;;;;;5078638;28;20104;-90
2023/08/07 09:33:26;;;;;;;14.38;2.40;;;17.90;99.90;;;;;;5079337;28;20450;-94
2023/08/07 09:35:52;;;;;;;14.43;3.38;;;17.90;99.90;;;;;;5052545;28;20062;-90
2023/08/07 09:38:18;;;;;;;12.60;2.65;;;17.80;99.90;;;;;;5067935;28;20044;-93
2023/08/07 09:40:44;;;;;;;13.65;2.45;;;17.80;99.90;;;;;;5048887;28;20151;-91
2023/08/07 09:43:10;;;;;;;15.85;2.97;;;17.80;99.90;;;;;;5052734;28;20048;-92
2023/08/07 09:45:40;;;;;;;11.00;2.53;;;17.90;99.90;;;;;;5056949;28;20048;-92
2023/08/07 09:48:06;;;;;;;13.15;2.25;;;17.90;99.90;;;;;;5076280;28;20121;-91
2023/08/07 09:50:32;;;;;;;13.93;2.45;;;17.90;99.90;;;;;;5047441;28;20041;-89
2023/08/07 09:52:58;;;;;;;10.32;2.40;;;17.70;99.90;;;;;;5065999;28;20117;-94
2023/08/07 09:55:25;;;;;;;9.70;1.83;;;17.80;99.90;;;;;;5057571;28;20124;-90
2023/08/07 09:57:51;;;;;;;10.43;1.70;;;18.00;99.90;;;;;;5068814;28;20469;-92
2023/08/07 10:00:21;;;;;;;12.57;2.30;;;18.10;99.90;;;;;;5055865;28;20099;-88
2023/08/07 10:02:48;;;;;;;12.60;2.25;;;18.00;99.90;;;;;;5071497;28;20442;-91
2023/08/07 10:05:14;;;;;;;10.98;2.03;;;17.90;99.90;;;;;;5055017;28;20102;-87
2023/08/07 10:07:41;;;;;;;12.45;2.05;;;17.70;99.90;;;;;;5052837;28;20036;-89
2023/08/07 10:10:08;;;;;;;13.65;3.30;;;17.60;99.90;;;;;;5051470;28;20109;-90
2023/08/07 10:12:34;;;;;;;14.48;2.47;;;17.50;99.90;;;;;;5077562;28;20468;-89
2023/08/07 10:15:00;;;;;;;15.20;2.92;;;17.50;99.90;;;;;;5043092;28;20050;-83
2023/08/07 10:17:27;;;;;;;9.15;2.35;;;17.50;99.90;;;;;;5061616;28;20041;-86
2023/08/07 10:19:53;;;;;;;12.35;2.45;;;17.50;99.90;;;;;;5065401;28;20063;-87
2023/08/07 10:22:19;;;;;;;11.60;2.50;;;17.70;99.90;;;;;;5078244;28;20471;-86
2023/08/07 10:24:48;;;;;;;11.75;2.55;;;18.00;99.90;;;;;;5055891;28;20086;-87
2023/08/07 10:27:20;;;;;;;14.27;2.33;;;18.30;99.90;;;;;;5055388;28;20071;-88
2023/08/07 10:29:47;;;;;;;13.38;2.38;;;18.30;99.90;;;;;;5044586;28;20048;-88
2023/08/07 10:32:15;;;;;;;14.45;2.72;;;18.50;99.90;;;;;;5066795;28;20039;-87
2023/08/07 10:34:46;;;;;;;14.68;2.70;;;18.50;99.90;;;;;;5059694;28;20048;-91
2023/08/07 10:37:37;;;;;;;10.65;2.42;;;18.70;99.90;;;;;;5068932;28;20136;-86
2023/08/07 10:40:04;;;;;;;14.00;2.35;;;18.60;99.90;;;;;;5059083;28;20047;-86
2023/08/07 10:42:52;;;;;;;12.20;2.47;;;18.40;99.90;;;;;;5050890;28;20066;-91
2023/08/07 10:45:22;;;;;;;17.73;2.60;;;18.30;99.90;;;;;;5056165;28;20045;-87
2023/08/07 10:48:21;;;;;;;9.73;2.67;;;18.20;99.90;;;;;;5034275;28;20528;-89
2023/08/07 10:51:00;;;;;;;9.82;2.17;;;18.00;99.90;;;;;;5057910;28;20075;-89
2023/08/07 10:53:33;;;;;;;14.48;2.20;;;18.00;99.90;;;;;;5073520;28;20087;-87
2023/08/07 10:56:07;;;;;;;11.77;2.08;;;18.10;99.90;;;;;;5048688;28;20044;-89
2023/08/07 10:58:37;;;;;;;6.50;1.67;;;18.30;99.90;;;;;;5052084;28;20156;-90
2023/08/07 11:01:20;;;;;;;13.50;1.83;;;18.40;99.90;;;;;;5066868;28;20057;-89
2023/08/07 11:03:55;;;;;;;5.78;1.38;;;18.30;99.90;;;;;;5037918;28;20041;-89
2023/08/07 11:06:32;;;;;;;10.43;1.60;;;18.20;99.90;;;;;;5049430;28;20459;-90
2023/08/07 11:09:04;;;;;;;9.35;1.48;;;18.30;99.90;;;;;;5066820;28;20556;-88
2023/08/07 11:11:44;;;;;;;6.70;1.75;;;18.40;99.90;;;;;;5040126;28;20323;-86
2023/08/07 11:14:20;;;;;;;8.82;2.35;;;18.30;99.90;;;;;;5073523;28;20084;-88
2023/08/07 11:16:48;;;;;;;12.52;1.92;;;18.30;99.90;;;;;;5056933;28;20394;-87
2023/08/07 11:19:15;;;;;;;8.80;2.28;;;18.30;99.90;;;;;;5061923;28;20507;-88
2023/08/07 11:21:42;;;;;;;11.52;2.17;;;18.20;99.90;;;;;;5060580;28;20050;-87
2023/08/07 11:24:08;;;;;;;12.45;2.33;;;18.00;99.90;;;;;;5058777;28;20079;-90
2023/08/07 11:26:34;;;;;;;10.50;2.22;;;17.80;99.90;;;;;;5065967;28;20074;-89
2023/08/07 11:28:59;;;;;;;16.02;2.50;;;17.60;99.90;;;;;;5062158;28;20131;-88
2023/08/07 11:31:25;;;;;;;8.25;2.22;;;17.40;99.90;;;;;;5075934;28;20044;-87
2023/08/07 11:33:52;;;;;;;14.98;3.00;;;17.30;99.90;;;;;;5073194;28;20572;-89
2023/08/07 11:36:18;;;;;;;6.22;1.58;;;17.30;99.90;;;;;;5060457;28;20143;-89
2023/08/07 11:38:44;;;;;;;18.00;2.72;;;17.30;99.90;;;;;;5069064;28;20092;-90
2023/08/07 11:41:12;;;;;;;10.00;1.60;;;17.40;99.90;;;;;;5068033;28;20048;-88
2023/08/07 11:43:38;;;;;;;14.57;2.60;;;17.40;99.90;;;;;;5051691;28;20082;-91
2023/08/07 11:46:06;;;;;;;9.82;2.08;;;17.50;99.90;;;;;;5050579;28;20044;-90
2023/08/07 11:48:36;;;;;;;9.65;2.22;;;17.60;99.90;;;;;;5053031;28;20051;-88
2023/08/07 11:51:03;;;;;;;13.20;2.83;;;17.70;99.90;;;;;;5067050;28;20049;-90
2023/08/07 11:53:32;;;;;;;6.40;1.63;;;17.80;99.90;;;;;;5042374;28;20047;-87
2023/08/07 11:56:01;;;;;;;7.47;1.20;;;17.80;99.90;;;;;;5066198;28;20060;-88
2023/08/07 11:58:34;;;;;;;6.85;1.33;;;17.70;99.90;;;;;;5053922;28;20076;-89
2023/08/07 12:01:06;;;;;;;7.35;1.30;;;17.50;99.90;;;;;;5068316;28;20044;-90
2023/08/07 12:03:38;;;;;;;8.85;1.42;;;17.70;99.90;;;;;;5083540;28;20043;-89
2023/08/07 12:06:06;;;;;;;11.95;1.60;;;17.80;99.90;;;;;;5083794;28;20044;-86
2023/08/07 12:08:39;;;;;;;7.93;1.75;;;17.90;99.90;;;;;;5050935;28;20141;-88
2023/08/07 12:11:10;;;;;;;7.07;1.63;;;18.00;99.90;;;;;;5049621;28;20158;-84
2023/08/07 12:13:44;;;;;;;12.35;2.20;;;18.00;99.90;;;;;;5051553;28;20040;-87
2023/08/07 12:16:15;;;;;;;6.28;1.17;;;17.80;99.90;;;;;;5051562;28;20056;-88
2023/08/07 12:18:47;;;;;;;9.65;1.85;;;17.60;99.90;;;;;;5051234;28;20047;-88
2023/08/07 12:21:15;;;;;;;6.43;1.67;;;17.40;99.90;;;;;;5048922;28;20067;-88
2023/08/07 12:23:41;;;;;;;9.25;1.52;;;17.40;99.90;;;;;;5060740;28;20142;-86
2023/08/07 12:26:07;;;;;;;6.45;1.30;;;17.40;99.90;;;;;;5065147;28;20044;-87
2023/08/07 12:28:36;;;;;;;7.50;2.00;;;17.40;99.90;;;;;;5053884;28;20044;-88
2023/08/07 12:31:02;;;;;;;6.47;1.30;;;17.40;99.90;;;;;;5068913;28;20043;-87
2023/08/07 12:33:31;;;;;;;8.55;1.23;;;17.50;99.90;;;;;;5052720;28;20375;-87
2023/08/07 12:35:58;;;;;;;8.75;1.73;;;17.50;99.90;;;;;;5055290;28;20846;-89
2023/08/07 12:38:24;;;;;;;9.77;2.42;;;17.50;99.90;;;;;;5067657;28;20070;-88
2023/08/07 12:40:49;;;;;;;13.05;2.88;;;17.60;99.90;;;;;;5049961;28;20040;-86